Preview of NWS' New Version of Forecast
This preview is not operational and should not be used for support decisions.

Terminal Aerodrome Forecast (TAF)

Issued by National Weather Service (NWS)

                            
547 
FTUS42 KMFL 221120
TAFMIA
TAF
KMIA 221120Z 2212/2318 09015KT P6SM SCT025 SCT035
     FM221400 10015G25KT P6SM SCT025 BKN040
     FM222100 09011KT P6SM SCT025 SCT040
     FM231000 10007KT P6SM SCT025 SCT040
     FM231400 11017KT P6SM SCT025 SCT040=